| time (UTC) | temp F | wind direction | speed MPH | gust MPH | rain 1hr in | rain 24hr in | rain mn in | humidity % | barometer mb |
| 20260510000033 | 57 | 355 | 0.0 | 0.0 | 0.00 | 0.38 | 0.38 | 95 | 1004.9 |
| 20260509235530 | 57 | 359 | 0.0 | 0.0 | 0.00 | 0.38 | 0.38 | 94 | 1004.9 |
| 20260509235027 | 57 | 353 | 0.0 | 1.0 | 0.00 | 0.38 | 0.38 | 94 | 1004.7 |
| 20260509234523 | 58 | 16 | 0.0 | 1.0 | 0.00 | 0.38 | 0.38 | 93 | 1004.9 |
| 20260509234021 | 59 | 16 | 1.0 | 1.0 | 0.00 | 0.38 | 0.38 | 92 | 1004.8 |
| 20260509233518 | 60 | 3 | 1.0 | 1.0 | 0.00 | 0.38 | 0.38 | 90 | 1004.8 |
| 20260509233015 | 60 | 1 | 0.0 | 2.0 | 0.00 | 0.38 | 0.38 | 89 | 1004.6 |
| 20260509232512 | 62 | 1 | 0.0 | 1.0 | 0.00 | 0.38 | 0.38 | 85 | 1004.6 |
| 20260509232009 | 63 | 14 | 1.0 | 2.0 | 0.00 | 0.38 | 0.38 | 83 | 1004.5 |
| 20260509231505 | 64 | 1 | 0.0 | 2.0 | 0.00 | 0.38 | 0.38 | 82 | 1004.6 |
| 20260509231003 | 64 | 348 | 2.0 | 2.0 | 0.00 | 0.38 | 0.38 | 82 | 1004.5 |
| 20260509230459 | 66 | 11 | 2.0 | 2.0 | 0.00 | 0.38 | 0.38 | 76 | 1004.5 |
| 20260509225956 | 66 | 3 | 0.0 | 0.0 | 0.00 | 0.38 | 0.38 | 74 | 1004.8 |
| 20260509225452 | 66 | 4 | 1.0 | 1.0 | 0.00 | 0.38 | 0.38 | 75 | 1004.7 |
| 20260509224948 | 65 | 355 | 0.0 | 1.0 | 0.00 | 0.38 | 0.38 | 76 | 1004.8 |
| 20260509224443 | 65 | 344 | 0.0 | 0.0 | 0.00 | 0.38 | 0.38 | 73 | 1005.0 |
| 20260509223940 | 65 | 342 | 0.0 | 0.0 | 0.00 | 0.38 | 0.38 | 73 | 1004.9 |
| 20260509223437 | 65 | 339 | 0.0 | 0.0 | 0.00 | 0.38 | 0.38 | 75 | 1004.8 |
| 20260509222935 | 64 | 338 | 0.0 | 0.0 | 0.00 | 0.38 | 0.38 | 77 | 1005.0 |
| 20260509222430 | 64 | 351 | 0.0 | 0.0 | 0.00 | 0.38 | 0.38 | 77 | 1004.9 |
| 20260509221926 | 64 | 352 | 0.0 | 1.0 | 0.00 | 0.38 | 0.38 | 76 | 1004.9 |
| 20260509221423 | 65 | 4 | 0.0 | 1.0 | 0.00 | 0.38 | 0.38 | 74 | 1005.0 |
| 20260509220918 | 65 | 318 | 0.0 | 1.0 | 0.00 | 0.38 | 0.38 | 74 | 1005.0 |
| 20260509220414 | 65 | 280 | 1.0 | 1.0 | 0.00 | 0.38 | 0.38 | 75 | 1004.9 |
| 20260509215911 | 64 | 1 | 0.0 | 1.0 | 0.00 | 0.38 | 0.38 | 76 | 1005.0 |
| 20260509215406 | 63 | 315 | 0.0 | 2.0 | 0.00 | 0.38 | 0.38 | 78 | 1004.8 |
| 20260509214904 | 63 | 349 | 1.0 | 1.0 | 0.00 | 0.38 | 0.38 | 81 | 1005.1 |
| 20260509214401 | 63 | 346 | 0.0 | 1.0 | 0.00 | 0.38 | 0.38 | 81 | 1005.2 |
| 20260509213858 | 64 | 330 | 0.0 | 3.0 | 0.00 | 0.38 | 0.38 | 76 | 1005.2 |
| 20260509213353 | 64 | 326 | 0.0 | 2.0 | 0.00 | 0.38 | 0.38 | 77 | 1005.2 |
| 20260509212851 | 63 | 345 | 0.0 | 1.0 | 0.00 | 0.38 | 0.38 | 79 | 1005.3 |
| 20260509212349 | 64 | 282 | 0.0 | 3.0 | 0.00 | 0.38 | 0.38 | 79 | 1005.1 |
| 20260509211844 | 63 | 352 | 0.0 | 2.0 | 0.00 | 0.38 | 0.38 | 79 | 1005.1 |
| 20260509211340 | 63 | 356 | 0.0 | 1.0 | 0.00 | 0.38 | 0.38 | 81 | 1005.5 |
| 20260509210837 | 62 | 9 | 1.0 | 2.0 | 0.00 | 0.38 | 0.38 | 85 | 1005.2 |
| 20260509210335 | 61 | 351 | 0.0 | 3.0 | 0.00 | 0.38 | 0.38 | 86 | 1005.5 |
| 20260509205834 | 60 | 335 | 1.0 | 1.0 | 0.00 | 0.38 | 0.38 | 86 | 1005.5 |
| 20260509205329 | 62 | 340 | 2.0 | 6.0 | 0.00 | 0.38 | 0.38 | 85 | 1005.6 |
| 20260509204826 | 61 | 343 | 1.0 | 2.0 | 0.00 | 0.38 | 0.38 | 86 | 1005.8 |
| 20260509204322 | 62 | 321 | 1.0 | 2.0 | 0.00 | 0.38 | 0.38 | 85 | 1005.6 |
| 20260509203818 | 61 | 354 | 3.0 | 5.0 | 0.00 | 0.38 | 0.38 | 83 | 1005.7 |
| 20260509203316 | 61 | 343 | 2.0 | 5.0 | 0.00 | 0.38 | 0.38 | 88 | 1005.5 |
| 20260509202812 | 60 | 358 | 2.0 | 5.0 | 0.00 | 0.38 | 0.38 | 90 | 1005.7 |
| 20260509202308 | 59 | 333 | 0.0 | 3.0 | 0.00 | 0.38 | 0.38 | 93 | 1005.7 |
| 20260509201807 | 59 | 340 | 2.0 | 2.0 | 0.00 | 0.38 | 0.38 | 96 | 1005.8 |
| 20260509201304 | 58 | 333 | 1.0 | 1.0 | 0.00 | 0.38 | 0.38 | 95 | 1005.7 |
| 20260509200801 | 58 | 324 | 0.0 | 1.0 | 0.00 | 0.38 | 0.38 | 96 | 1006.0 |
| 20260509200256 | 57 | 340 | 0.0 | 1.0 | 0.00 | 0.38 | 0.38 | 96 | 1006.1 |
| 20260509195752 | 57 | 344 | 1.0 | 1.0 | 0.00 | 0.38 | 0.38 | 96 | 1005.9 |
| 20260509195248 | 57 | 342 | 0.0 | 0.0 | 0.00 | 0.38 | 0.38 | 97 | 1005.9 |
| 20260509194742 | 57 | 311 | 3.0 | 5.0 | 0.00 | 0.38 | 0.38 | 97 | 1006.2 |
| 20260509194239 | 57 | 340 | 0.0 | 3.0 | 0.00 | 0.38 | 0.38 | 97 | 1006.3 |
| 20260509193736 | 57 | 334 | 0.0 | 2.0 | 0.00 | 0.38 | 0.38 | 97 | 1006.3 |
| 20260509193235 | 57 | 14 | 2.0 | 2.0 | 0.00 | 0.38 | 0.38 | 98 | 1006.4 |
| 20260509192732 | 56 | 356 | 1.0 | 1.0 | 0.05 | 0.38 | 0.38 | 98 | 1006.4 |
| 20260509192227 | 56 | 221 | 3.0 | 3.0 | 0.05 | 0.38 | 0.38 | 97 | 1006.4 |
| 20260509191722 | 56 | 348 | 0.0 | 0.0 | 0.00 | 0.37 | 0.37 | 97 | 1006.4 |
| 20260509191219 | 56 | 222 | 3.0 | 3.0 | 0.07 | 0.37 | 0.37 | 96 | 1006.2 |
| 20260509190715 | 56 | 347 | 0.0 | 1.0 | 0.12 | 0.37 | 0.37 | 97 | 1006.2 |
| 20260509190212 | 56 | 244 | 2.0 | 3.0 | 0.05 | 0.36 | 0.36 | 96 | 1006.4 |
| 20260509185710 | 56 | 293 | 1.0 | 2.0 | 0.00 | 0.35 | 0.35 | 96 | 1006.4 |
| 20260509185206 | 57 | 340 | 0.0 | 1.0 | 0.00 | 0.35 | 0.35 | 97 | 1006.2 |
| 20260509184704 | 57 | 315 | 2.0 | 2.0 | 0.00 | 0.35 | 0.35 | 97 | 1006.3 |
| 20260509184201 | 57 | 331 | 0.0 | 2.0 | 0.00 | 0.35 | 0.35 | 98 | 1006.6 |
| 20260509183657 | 56 | 347 | 1.0 | 1.0 | 0.00 | 0.35 | 0.35 | 98 | 1006.3 |
| 20260509183152 | 55 | 335 | 1.0 | 1.0 | 0.00 | 0.35 | 0.35 | 98 | 1006.4 |
| 20260509182648 | 55 | 317 | 0.0 | 0.0 | 0.00 | 0.35 | 0.35 | 97 | 1006.5 |
| 20260509182145 | 55 | 287 | 1.0 | 2.0 | 0.00 | 0.35 | 0.35 | 97 | 1006.6 |
| 20260509181643 | 55 | 342 | 1.0 | 2.0 | 0.07 | 0.35 | 0.35 | 98 | 1006.3 |
| 20260509181141 | 55 | 341 | 0.0 | 0.0 | 0.07 | 0.35 | 0.35 | 98 | 1006.4 |
| 20260509180637 | 55 | 309 | 0.0 | 1.0 | 0.07 | 0.34 | 0.34 | 98 | 1006.6 |
| 20260509180134 | 55 | 336 | 0.0 | 0.0 | 0.07 | 0.34 | 0.34 | 98 | 1006.6 |
| 20260509175629 | 55 | 337 | 0.0 | 0.0 | 0.00 | 0.33 | 0.33 | 98 | 1006.6 |
| 20260509175127 | 54 | 347 | 0.0 | 1.0 | 0.05 | 0.33 | 0.33 | 98 | 1006.6 |
| 20260509174622 | 55 | 327 | 0.0 | 0.0 | 0.00 | 0.32 | 0.32 | 98 | 1006.6 |
| 20260509174117 | 55 | 344 | 0.0 | 0.0 | 0.07 | 0.32 | 0.32 | 98 | 1006.5 |
| 20260509173613 | 54 | 343 | 1.0 | 2.0 | 0.07 | 0.32 | 0.32 | 98 | 1006.6 |
| 20260509173109 | 54 | 346 | 0.0 | 1.0 | 0.00 | 0.31 | 0.31 | 99 | 1006.2 |
| 20260509172607 | 54 | 346 | 0.0 | 1.0 | 0.00 | 0.31 | 0.31 | 98 | 1006.5 |
| 20260509172102 | 54 | 37 | 3.0 | 3.0 | 0.00 | 0.31 | 0.31 | 98 | 1006.2 |
| 20260509171558 | 55 | 353 | 0.0 | 0.0 | 0.00 | 0.31 | 0.31 | 98 | 1006.5 |
| 20260509171055 | 54 | 343 | 0.0 | 0.0 | 0.05 | 0.31 | 0.31 | 98 | 1006.3 |
| 20260509170551 | 54 | 354 | 0.0 | 0.0 | 0.05 | 0.31 | 0.31 | 97 | 1006.5 |
| 20260509170047 | 54 | 351 | 0.0 | 0.0 | 0.00 | 0.30 | 0.30 | 98 | 1006.6 |
| 20260509165546 | 53 | 357 | 0.0 | 0.0 | 0.00 | 0.30 | 0.30 | 97 | 1006.4 |
| 20260509165041 | 53 | 5 | 0.0 | 0.0 | 0.00 | 0.30 | 0.30 | 98 | 1006.5 |
| 20260509164537 | 53 | 4 | 0.0 | 0.0 | 0.07 | 0.30 | 0.30 | 98 | 1006.4 |
| 20260509164033 | 53 | 347 | 0.0 | 0.0 | 0.07 | 0.30 | 0.30 | 99 | 1006.5 |
| 20260509163531 | 54 | 352 | 0.0 | 0.0 | 0.05 | 0.29 | 0.29 | 99 | 1006.6 |
| 20260509163026 | 53 | 348 | 0.0 | 0.0 | 0.12 | 0.29 | 0.29 | 99 | 1006.6 |
| 20260509162524 | 53 | 347 | 0.0 | 0.0 | 0.12 | 0.28 | 0.28 | 98 | 1006.4 |
| 20260509162019 | 53 | 351 | 0.0 | 1.0 | 0.12 | 0.27 | 0.27 | 98 | 1006.5 |
| 20260509161516 | 54 | 358 | 0.0 | 0.0 | 0.12 | 0.26 | 0.26 | 98 | 1006.8 |
| 20260509161011 | 53 | 346 | 0.0 | 0.0 | 0.12 | 0.25 | 0.25 | 98 | 1006.8 |
| 20260509160507 | 54 | 10 | 0.0 | 0.0 | 0.07 | 0.24 | 0.24 | 97 | 1006.8 |
| 20260509160003 | 54 | 350 | 0.0 | 0.0 | 0.07 | 0.23 | 0.23 | 97 | 1006.7 |
| 20260509155459 | 53 | 346 | 0.0 | 0.0 | 0.07 | 0.23 | 0.23 | 98 | 1007.0 |
| 20260509154955 | 53 | 356 | 0.0 | 0.0 | 0.05 | 0.22 | 0.22 | 97 | 1006.8 |
| 20260509154451 | 53 | 355 | 0.0 | 0.0 | 0.05 | 0.22 | 0.22 | 98 | 1006.8 |
| 20260509153949 | 53 | 338 | 0.0 | 1.0 | 0.00 | 0.21 | 0.21 | 98 | 1007.0 |
| 20260509153446 | 53 | 355 | 0.0 | 1.0 | 0.00 | 0.21 | 0.21 | 99 | 1007.0 |
| 20260509152943 | 53 | 37 | 1.0 | 2.0 | 0.00 | 0.21 | 0.21 | 99 | 1007.3 |
| 20260509152438 | 53 | 356 | 0.0 | 0.0 | 0.00 | 0.21 | 0.21 | 99 | 1007.2 |
| 20260509151936 | 52 | 358 | 0.0 | 2.0 | 0.07 | 0.21 | 0.21 | 99 | 1007.1 |
| 20260509151432 | 52 | 1 | 0.0 | 1.0 | 0.07 | 0.21 | 0.21 | 99 | 1007.3 |
| 20260509150930 | 52 | 35 | 2.0 | 3.0 | 0.00 | 0.20 | 0.20 | 99 | 1007.3 |
| 20260509150427 | 52 | 41 | 1.0 | 2.0 | 0.00 | 0.20 | 0.20 | 99 | 1007.1 |
| 20260509145925 | 52 | 351 | 0.0 | 1.0 | 0.05 | 0.20 | 0.20 | 99 | 1007.1 |
| 20260509145425 | 52 | 13 | 1.0 | 2.0 | 0.05 | 0.20 | 0.20 | 99 | 1007.4 |
| 20260509144921 | 52 | 1 | 0.0 | 1.0 | 0.00 | 0.19 | 0.19 | 99 | 1007.1 |
| 20260509144418 | 52 | 347 | 0.0 | 0.0 | 0.00 | 0.19 | 0.19 | 99 | 1007.5 |
| 20260509143915 | 51 | 337 | 0.0 | 1.0 | 0.07 | 0.19 | 0.19 | 99 | 1007.5 |
| 20260509143413 | 51 | 352 | 0.0 | 1.0 | 0.05 | 0.18 | 0.18 | 99 | 1007.5 |
| 20260509142909 | 51 | 31 | 0.0 | 1.0 | 0.05 | 0.18 | 0.18 | 99 | 1007.6 |
| 20260509142405 | 51 | 5 | 0.0 | 1.0 | 0.00 | 0.17 | 0.17 | 99 | 1007.6 |
| 20260509141901 | 51 | 354 | 0.0 | 0.0 | 0.07 | 0.17 | 0.17 | 99 | 1007.3 |
| 20260509141358 | 51 | 73 | 2.0 | 2.0 | 0.00 | 0.16 | 0.16 | 99 | 1007.5 |
| 20260509140854 | 51 | 358 | 0.0 | 2.0 | 0.05 | 0.16 | 0.16 | 99 | 1007.4 |
| 20260509140351 | 51 | 4 | 0.0 | 0.0 | 0.05 | 0.16 | 0.16 | 99 | 1007.4 |
| 20260509135849 | 51 | 352 | 0.0 | 0.0 | 0.00 | 0.15 | 0.15 | 99 | 1007.6 |
| 20260509135347 | 51 | 8 | 0.0 | 1.0 | 0.07 | 0.15 | 0.15 | 99 | 1007.5 |
| 20260509134844 | 51 | 354 | 0.0 | 0.0 | 0.07 | 0.15 | 0.15 | 99 | 1007.5 |
| 20260509134341 | 51 | 6 | 0.0 | 1.0 | 0.05 | 0.14 | 0.14 | 99 | 1007.5 |
| 20260509133837 | 51 | 348 | 0.0 | 1.0 | 0.00 | 0.13 | 0.13 | 99 | 1007.8 |
| 20260509133335 | 51 | 353 | 0.0 | 1.0 | 0.07 | 0.13 | 0.13 | 99 | 1007.7 |
| 20260509132834 | 51 | 345 | 0.0 | 0.0 | 0.07 | 0.13 | 0.13 | 99 | 1007.8 |
| 20260509132331 | 51 | 347 | 0.0 | 0.0 | 0.00 | 0.12 | 0.12 | 99 | 1007.6 |
| 20260509131828 | 51 | 355 | 0.0 | 0.0 | 0.05 | 0.12 | 0.12 | 99 | 1007.8 |
| 20260509131325 | 51 | 34 | 1.0 | 2.0 | 0.05 | 0.12 | 0.12 | 99 | 1007.8 |
| 20260509130821 | 50 | 357 | 0.0 | 1.0 | 0.00 | 0.11 | 0.11 | 99 | 1007.8 |
| 20260509130317 | 51 | 357 | 0.0 | 0.0 | 0.00 | 0.11 | 0.11 | 99 | 1007.8 |
| 20260509125814 | 50 | 355 | 0.0 | 2.0 | 0.00 | 0.11 | 0.11 | 99 | 1007.9 |
| 20260509125310 | 50 | 349 | 0.0 | 0.0 | 0.00 | 0.11 | 0.11 | 99 | 1007.8 |
| 20260509124807 | 50 | 36 | 1.0 | 2.0 | 0.00 | 0.11 | 0.11 | 99 | 1007.9 |
| 20260509124303 | 50 | 3 | 0.0 | 0.0 | 0.07 | 0.11 | 0.11 | 99 | 1007.9 |
| 20260509123802 | 50 | 10 | 0.0 | 0.0 | 0.07 | 0.11 | 0.11 | 99 | 1008.0 |
| 20260509123259 | 50 | 349 | 0.0 | 1.0 | 0.00 | 0.10 | 0.10 | 99 | 1008.1 |
| 20260509122754 | 50 | 350 | 0.0 | 0.0 | 0.00 | 0.10 | 0.10 | 99 | 1008.3 |
| 20260509122252 | 50 | 14 | 0.0 | 0.0 | 0.00 | 0.10 | 0.10 | 99 | 1008.1 |
| 20260509121748 | 50 | 354 | 0.0 | 0.0 | 0.00 | 0.10 | 0.10 | 99 | 1008.2 |
| 20260509121245 | 50 | 349 | 0.0 | 0.0 | 0.00 | 0.10 | 0.10 | 99 | 1008.2 |
| 20260509120744 | 50 | 344 | 0.0 | 0.0 | 0.00 | 0.10 | 0.10 | 99 | 1008.1 |
| 20260509120241 | 50 | 359 | 0.0 | 0.0 | 0.00 | 0.10 | 0.10 | 99 | 1008.2 |
| 20260509115739 | 50 | 352 | 0.0 | 0.0 | 0.00 | 0.10 | 0.10 | 99 | 1008.1 |
| 20260509115235 | 50 | 351 | 0.0 | 0.0 | 0.00 | 0.10 | 0.10 | 99 | 1008.2 |
| 20260509114734 | 50 | 339 | 0.0 | 0.0 | 0.07 | 0.10 | 0.10 | 99 | 1008.1 |
| 20260509114232 | 50 | 352 | 0.0 | 0.0 | 0.07 | 0.10 | 0.10 | 99 | 1008.1 |
| 20260509113731 | 50 | 348 | 0.0 | 0.0 | 0.00 | 0.09 | 0.09 | 99 | 1007.9 |
| 20260509113228 | 50 | 353 | 0.0 | 0.0 | 0.00 | 0.09 | 0.09 | 99 | 1008.1 |
| 20260509112724 | 50 | 357 | 0.0 | 0.0 | 0.00 | 0.09 | 0.09 | 99 | 1008.1 |
| 20260509112222 | 50 | 347 | 0.0 | 0.0 | 0.00 | 0.09 | 0.09 | 99 | 1008.0 |
| 20260509111718 | 50 | 350 | 0.0 | 0.0 | 0.00 | 0.09 | 0.09 | 99 | 1008.1 |
| 20260509111215 | 50 | 341 | 0.0 | 0.0 | 0.00 | 0.09 | 0.09 | 99 | 1008.0 |
| 20260509110713 | 50 | 354 | 0.0 | 0.0 | 0.00 | 0.09 | 0.09 | 99 | 1008.0 |
| 20260509110209 | 50 | 345 | 0.0 | 0.0 | 0.00 | 0.09 | 0.09 | 99 | 1008.1 |
| 20260509105708 | 50 | 352 | 0.0 | 0.0 | 0.00 | 0.09 | 0.09 | 99 | 1008.1 |
| 20260509105204 | 50 | 353 | 0.0 | 0.0 | 0.05 | 0.09 | 0.09 | 99 | 1008.4 |
| 20260509104701 | 49 | 349 | 0.0 | 0.0 | 0.05 | 0.09 | 0.09 | 99 | 1008.1 |
| 20260509104158 | 49 | 342 | 0.0 | 0.0 | 0.00 | 0.08 | 0.08 | 99 | 1008.1 |
| 20260509103656 | 49 | 351 | 0.0 | 0.0 | 0.00 | 0.08 | 0.08 | 99 | 1007.9 |
| 20260509103154 | 49 | 352 | 0.0 | 0.0 | 0.00 | 0.08 | 0.08 | 99 | 1008.1 |
| 20260509102652 | 49 | 352 | 0.0 | 0.0 | 0.00 | 0.08 | 0.08 | 99 | 1008.1 |
| 20260509102148 | 49 | 344 | 0.0 | 0.0 | 0.00 | 0.08 | 0.08 | 99 | 1008.0 |
| 20260509101644 | 49 | 347 | 0.0 | 0.0 | 0.00 | 0.08 | 0.08 | 99 | 1008.0 |
| 20260509101141 | 49 | 345 | 0.0 | 0.0 | 0.00 | 0.08 | 0.08 | 99 | 1007.9 |
| 20260509100638 | 49 | 356 | 0.0 | 0.0 | 0.07 | 0.08 | 0.08 | 99 | 1007.8 |
| 20260509100136 | 49 | 352 | 0.0 | 0.0 | 0.07 | 0.08 | 0.08 | 99 | 1007.8 |
| 20260509095632 | 49 | 354 | 0.0 | 0.0 | 0.00 | 0.07 | 0.07 | 99 | 1007.9 |
| 20260509095130 | 49 | 355 | 0.0 | 1.0 | 0.00 | 0.07 | 0.07 | 99 | 1008.0 |
| 20260509094626 | 49 | 352 | 0.0 | 0.0 | 0.00 | 0.07 | 0.07 | 99 | 1008.0 |
| 20260509094123 | 49 | 359 | 0.0 | 1.0 | 0.00 | 0.07 | 0.07 | 99 | 1007.8 |
| 20260509093622 | 49 | 84 | 1.0 | 2.0 | 0.00 | 0.07 | 0.07 | 99 | 1007.8 |
| 20260509093118 | 49 | 9 | 0.0 | 2.0 | 0.00 | 0.07 | 0.07 | 99 | 1008.0 |
| 20260509092616 | 50 | 353 | 0.0 | 1.0 | 0.00 | 0.07 | 0.07 | 99 | 1008.2 |
| 20260509092115 | 50 | 3 | 1.0 | 2.0 | 0.00 | 0.07 | 0.07 | 99 | 1008.0 |
| 20260509091612 | 49 | 356 | 0.0 | 0.0 | 0.00 | 0.07 | 0.07 | 99 | 1008.3 |
| 20260509091108 | 49 | 359 | 0.0 | 0.0 | 0.00 | 0.07 | 0.07 | 99 | 1008.3 |
| 20260509090606 | 49 | 354 | 0.0 | 0.0 | 0.00 | 0.07 | 0.07 | 99 | 1008.3 |
| 20260509085601 | 49 | 356 | 0.0 | 1.0 | 0.00 | 0.07 | 0.07 | 99 | 1008.5 |
| 20260509085056 | 49 | 346 | 0.0 | 0.0 | 0.00 | 0.07 | 0.07 | 99 | 1008.4 |
| 20260509084554 | 49 | 22 | 1.0 | 1.0 | 0.00 | 0.07 | 0.07 | 99 | 1008.1 |
| 20260509084051 | 49 | 5 | 1.0 | 1.0 | 0.00 | 0.07 | 0.07 | 99 | 1008.3 |
| 20260509083548 | 50 | 347 | 0.0 | 0.0 | 0.00 | 0.07 | 0.07 | 99 | 1008.3 |
| 20260509083044 | 50 | 337 | 0.0 | 0.0 | 0.00 | 0.07 | 0.07 | 99 | 1008.3 |
| 20260509082542 | 50 | 9 | 0.0 | 0.0 | 0.00 | 0.07 | 0.07 | 99 | 1008.1 |
| 20260509082039 | 50 | 2 | 0.0 | 0.0 | 0.00 | 0.07 | 0.07 | 99 | 1008.1 |
| 20260509081536 | 50 | 350 | 0.0 | 0.0 | 0.00 | 0.07 | 0.07 | 99 | 1008.2 |
| 20260509081033 | 50 | 9 | 0.0 | 1.0 | 0.00 | 0.07 | 0.07 | 99 | 1008.3 |
| 20260509080531 | 50 | 30 | 0.0 | 1.0 | 0.00 | 0.07 | 0.07 | 99 | 1008.4 |
| 20260509080029 | 50 | 15 | 0.0 | 2.0 | 0.00 | 0.07 | 0.07 | 99 | 1008.3 |
| 20260509075525 | 50 | 14 | 1.0 | 2.0 | 0.00 | 0.07 | 0.07 | 99 | 1008.4 |
| 20260509075024 | 50 | 358 | 0.0 | 0.0 | 0.00 | 0.07 | 0.07 | 99 | 1008.1 |
| 20260509074521 | 50 | 6 | 0.0 | 1.0 | 0.00 | 0.07 | 0.07 | 99 | 1008.2 |
| 20260509074017 | 50 | 9 | 0.0 | 0.0 | 0.00 | 0.07 | 0.07 | 99 | 1008.3 |
| 20260509073514 | 50 | 354 | 0.0 | 1.0 | 0.00 | 0.07 | 0.07 | 99 | 1008.3 |
| 20260509073010 | 50 | 2 | 0.0 | 2.0 | 0.00 | 0.07 | 0.07 | 99 | 1008.5 |
| 20260509072507 | 50 | 10 | 0.0 | 0.0 | 0.00 | 0.07 | 0.07 | 99 | 1008.5 |
| 20260509072003 | 50 | 357 | 0.0 | 2.0 | 0.00 | 0.07 | 0.07 | 99 | 1008.5 |
| 20260509071500 | 50 | 4 | 0.0 | 1.0 | 0.05 | 0.07 | 0.07 | 99 | 1008.5 |
| 20260509070958 | 50 | 357 | 0.0 | 1.0 | 0.05 | 0.07 | 0.07 | 99 | 1008.7 |
| 20260509070455 | 50 | 356 | 0.0 | 0.0 | 0.00 | 0.06 | 0.06 | 99 | 1008.6 |
| 20260509065950 | 49 | 359 | 0.0 | 0.0 | 0.00 | 0.06 | 0.06 | 99 | 1008.8 |
| 20260509065446 | 49 | 359 | 0.0 | 0.0 | 0.00 | 0.06 | 0.06 | 99 | 1008.9 |
| 20260509064942 | 49 | 2 | 0.0 | 0.0 | 0.00 | 0.06 | 0.06 | 99 | 1009.0 |
| 20260509064441 | 50 | 356 | 0.0 | 0.0 | 0.07 | 0.06 | 0.06 | 99 | 1008.9 |
| 20260509063938 | 50 | 348 | 0.0 | 0.0 | 0.07 | 0.06 | 0.06 | 99 | 1009.3 |
| 20260509063433 | 49 | 347 | 0.0 | 0.0 | 0.00 | 0.05 | 0.05 | 99 | 1009.3 |
| 20260509062930 | 49 | 348 | 0.0 | 0.0 | 0.00 | 0.05 | 0.05 | 99 | 1009.2 |
| 20260509062428 | 49 | 347 | 0.0 | 0.0 | 0.05 | 0.05 | 0.05 | 99 | 1009.3 |
| 20260509061925 | 50 | 346 | 0.0 | 0.0 | 0.05 | 0.05 | 0.05 | 99 | 1009.3 |
| 20260509061423 | 50 | 352 | 0.0 | 0.0 | 0.07 | 0.04 | 0.04 | 99 | 1009.4 |
| 20260509060919 | 49 | 358 | 0.0 | 0.0 | 0.07 | 0.04 | 0.04 | 99 | 1009.5 |
| 20260509060417 | 49 | 356 | 0.0 | 0.0 | 0.00 | 0.03 | 0.03 | 99 | 1009.6 |
| 20260509055912 | 50 | 355 | 0.0 | 0.0 | 0.00 | 0.03 | 0.03 | 99 | 1009.5 |
| 20260509055407 | 50 | 350 | 0.0 | 0.0 | 0.05 | 0.03 | 0.03 | 99 | 1009.6 |
| 20260509054905 | 50 | 352 | 0.0 | 0.0 | 0.00 | 0.02 | 0.02 | 99 | 1009.7 |
| 20260509054401 | 50 | 351 | 0.0 | 0.0 | 0.00 | 0.02 | 0.02 | 99 | 1009.5 |
| 20260509053859 | 50 | 346 | 0.0 | 0.0 | 0.00 | 0.02 | 0.02 | 99 | 1009.6 |
| 20260509053356 | 50 | 346 | 0.0 | 0.0 | 0.00 | 0.02 | 0.02 | 99 | 1009.8 |
| 20260509052855 | 50 | 346 | 0.0 | 0.0 | 0.00 | 0.02 | 0.02 | 99 | 1009.8 |
| 20260509052352 | 50 | 344 | 0.0 | 0.0 | 0.00 | 0.02 | 0.02 | 99 | 1009.7 |
| 20260509051849 | 50 | 350 | 0.0 | 0.0 | 0.00 | 0.02 | 0.02 | 99 | 1009.5 |
| 20260509051347 | 50 | 351 | 0.0 | 0.0 | 0.00 | 0.02 | 0.02 | 99 | 1009.7 |
| 20260509050844 | 50 | 341 | 0.0 | 0.0 | 0.00 | 0.02 | 0.02 | 99 | 1009.6 |
| 20260509050341 | 50 | 342 | 0.0 | 0.0 | 0.07 | 0.02 | 0.02 | 99 | 1009.5 |
| 20260509045837 | 50 | 342 | 0.0 | 0.0 | 0.07 | 0.02 | 0.02 | 99 | 1009.6 |
| 20260509045334 | 50 | 342 | 0.0 | 0.0 | 0.00 | 0.01 | 0.01 | 99 | 1009.8 |
| 20260509044831 | 50 | 341 | 0.0 | 0.0 | 0.00 | 0.01 | 0.01 | 99 | 1009.8 |
| 20260509044329 | 50 | 342 | 0.0 | 0.0 | 0.00 | 0.01 | 0.01 | 99 | 1009.8 |
| 20260509043825 | 50 | 342 | 0.0 | 0.0 | 0.00 | 0.01 | 0.01 | 99 | 1009.7 |
| 20260509043321 | 50 | 346 | 0.0 | 0.0 | 0.00 | 0.01 | 0.01 | 99 | 1009.9 |
| 20260509042817 | 50 | 337 | 0.0 | 0.0 | 0.00 | 0.01 | 0.01 | 99 | 1009.8 |
| 20260509042314 | 50 | 339 | 0.0 | 0.0 | 0.00 | 0.01 | 0.01 | 99 | 1009.8 |
| 20260509041811 | 50 | 340 | 0.0 | 0.0 | 0.00 | 0.01 | 0.01 | 99 | 1009.7 |
| 20260509041308 | 50 | 344 | 0.0 | 0.0 | 0.05 | 0.01 | 0.01 | 99 | 1009.8 |
| 20260509040806 | 50 | 347 | 0.0 | 0.0 | 0.05 | 0.01 | 0.01 | 99 | 1009.8 |
| 20260509040303 | 50 | 350 | 0.0 | 0.0 | 0.00 | 0.00 | 0.00 | 99 | 1009.7 |
| 20260509035800 | 50 | 353 | 0.0 | 0.0 | 0.00 | 0.21 | 0.21 | 99 | 1009.6 |
| 20260509035257 | 50 | 356 | 0.0 | 0.0 | 0.07 | 0.21 | 0.21 | 99 | 1009.5 |
| 20260509034753 | 50 | 355 | 0.0 | 0.0 | 0.07 | 0.21 | 0.21 | 99 | 1009.6 |
| 20260509034251 | 50 | 8 | 0.0 | 0.0 | 0.00 | 0.20 | 0.20 | 99 | 1009.6 |
| 20260509033748 | 51 | 354 | 0.0 | 0.0 | 0.00 | 0.20 | 0.20 | 99 | 1009.7 |
| 20260509033245 | 51 | 1 | 0.0 | 0.0 | 0.00 | 0.20 | 0.20 | 99 | 1009.8 |
| 20260509032742 | 51 | 353 | 0.0 | 0.0 | 0.00 | 0.20 | 0.20 | 99 | 1009.9 |
| 20260509032239 | 50 | 4 | 0.0 | 0.0 | 0.00 | 0.20 | 0.20 | 99 | 1009.9 |
| 20260509031737 | 51 | 9 | 0.0 | 0.0 | 0.00 | 0.20 | 0.20 | 99 | 1009.7 |
| 20260509031234 | 51 | 3 | 0.0 | 2.0 | 0.00 | 0.20 | 0.20 | 99 | 1009.8 |
| 20260509030732 | 50 | 333 | 1.0 | 2.0 | 0.00 | 0.20 | 0.20 | 99 | 1009.7 |
| 20260509030229 | 50 | 344 | 0.0 | 0.0 | 0.00 | 0.20 | 0.20 | 99 | 1009.9 |
| 20260509025726 | 50 | 348 | 0.0 | 0.0 | 0.00 | 0.20 | 0.20 | 99 | 1009.9 |
| 20260509025221 | 50 | 345 | 0.0 | 0.0 | 0.05 | 0.20 | 0.20 | 99 | 1010.0 |
| 20260509024717 | 51 | 349 | 0.0 | 0.0 | 0.05 | 0.20 | 0.20 | 99 | 1009.9 |
| 20260509024213 | 50 | 342 | 0.0 | 0.0 | 0.00 | 0.19 | 0.19 | 99 | 1010.0 |
| 20260509023711 | 51 | 347 | 1.0 | 1.0 | 0.00 | 0.19 | 0.19 | 99 | 1010.0 |
| 20260509023208 | 51 | 341 | 0.0 | 1.0 | 0.00 | 0.19 | 0.19 | 99 | 1010.0 |
| 20260509022703 | 50 | 350 | 0.0 | 0.0 | 0.00 | 0.19 | 0.19 | 99 | 1009.8 |
| 20260509022202 | 50 | 352 | 0.0 | 0.0 | 0.00 | 0.19 | 0.19 | 99 | 1009.9 |
| 20260509021658 | 50 | 359 | 0.0 | 0.0 | 0.07 | 0.19 | 0.19 | 99 | 1009.7 |
| 20260509021156 | 50 | 356 | 0.0 | 0.0 | 0.14 | 0.19 | 0.19 | 99 | 1009.9 |
| 20260509020654 | 50 | 345 | 0.0 | 0.0 | 0.12 | 0.18 | 0.18 | 99 | 1009.8 |
| 20260509020150 | 50 | 0 | 0.0 | 0.0 | 0.05 | 0.17 | 0.17 | 99 | 1009.6 |
| 20260509015649 | 50 | 0 | 0.0 | 0.0 | 0.00 | 0.16 | 0.16 | 99 | 1009.7 |
| 20260509015146 | 50 | 0 | 0.0 | 0.0 | 0.00 | 0.16 | 0.16 | 99 | 1009.7 |
| 20260509014643 | 50 | 0 | 0.0 | 0.0 | 0.00 | 0.16 | 0.16 | 99 | 1009.6 |
| 20260509014139 | 50 | 0 | 0.0 | 0.0 | 0.00 | 0.16 | 0.16 | 99 | 1009.3 |
| 20260509013636 | 50 | 0 | 0.0 | 0.0 | 0.00 | 0.16 | 0.16 | 99 | 1009.3 |
| 20260509013132 | 50 | 0 | 0.0 | 0.0 | 0.00 | 0.16 | 0.16 | 99 | 1009.2 |
| 20260509012629 | 50 | 0 | 0.0 | 0.0 | 0.00 | 0.16 | 0.16 | 99 | 1009.4 |
| 20260509012126 | 50 | 0 | 0.0 | 0.0 | 0.00 | 0.16 | 0.16 | 99 | 1009.2 |
| 20260509011624 | 50 | 0 | 0.0 | 0.0 | 0.00 | 0.16 | 0.16 | 99 | 1009.2 |
| 20260509011121 | 50 | 359 | 0.0 | 0.0 | 0.00 | 0.16 | 0.16 | 99 | 1009.2 |
| 20260509010618 | 51 | 359 | 0.0 | 0.0 | 0.00 | 0.16 | 0.16 | 99 | 1009.1 |
| 20260509010114 | 50 | 359 | 0.0 | 0.0 | 0.00 | 0.16 | 0.16 | 99 | 1008.9 |
| 20260509005612 | 50 | 359 | 0.0 | 0.0 | 0.00 | 0.16 | 0.16 | 99 | 1008.9 |
| 20260509005108 | 50 | 359 | 0.0 | 0.0 | 0.00 | 0.16 | 0.16 | 99 | 1008.7 |
| 20260509004604 | 51 | 359 | 0.0 | 0.0 | 0.00 | 0.16 | 0.16 | 99 | 1008.8 |
| 20260509004101 | 51 | 359 | 0.0 | 0.0 | 0.00 | 0.16 | 0.16 | 99 | 1008.9 |
| 20260509003600 | 51 | 359 | 0.0 | 0.0 | 0.00 | 0.16 | 0.16 | 99 | 1009.1 |
| 20260509003057 | 51 | 359 | 0.0 | 0.0 | 0.00 | 0.16 | 0.16 | 99 | 1008.7 |
| 20260509002554 | 51 | 359 | 0.0 | 0.0 | 0.00 | 0.16 | 0.16 | 99 | 1008.6 |
| 20260509002052 | 51 | 359 | 0.0 | 0.0 | 0.00 | 0.16 | 0.16 | 98 | 1008.8 |
| 20260509001549 | 51 | 359 | 0.0 | 0.0 | 0.00 | 0.16 | 0.16 | 98 | 1008.7 |
| 20260509001044 | 51 | 359 | 0.0 | 0.0 | 0.00 | 0.16 | 0.16 | 98 | 1008.6 |
| 20260509000543 | 51 | 359 | 0.0 | 0.0 | 0.00 | 0.16 | 0.16 | 97 | 1008.6 |